createdAt,value
2018-10-07T00:04:33.638Z,7
2018-10-07T00:09:36.094Z,8
2018-10-07T00:14:38.528Z,7
2018-10-07T00:19:40.939Z,8
2018-10-07T00:24:43.407Z,7
2018-10-07T00:29:45.850Z,7
2018-10-07T00:34:48.277Z,7
2018-10-07T00:39:50.718Z,7
2018-10-07T00:44:53.189Z,7
2018-10-07T00:49:55.605Z,6
2018-10-07T00:54:58.029Z,7
2018-10-07T01:00:00.477Z,6
2018-10-07T01:05:02.924Z,7
2018-10-07T01:10:05.374Z,6
2018-10-07T01:15:07.771Z,6
2018-10-07T01:20:10.219Z,6
2018-10-07T01:25:12.666Z,6
2018-10-07T01:30:15.204Z,7
2018-10-07T01:35:17.556Z,6
2018-10-07T01:40:19.990Z,7
2018-10-07T01:45:22.458Z,6
2018-10-07T01:50:25.077Z,6
2018-10-07T01:55:27.315Z,6
2018-10-07T02:00:29.756Z,6
2018-10-07T02:05:32.212Z,8
2018-10-07T02:10:34.630Z,7
2018-10-07T02:15:37.070Z,7
2018-10-07T02:20:39.510Z,7
2018-10-07T02:25:41.951Z,7
2018-10-07T02:30:44.390Z,7
2018-10-07T02:35:46.823Z,9
2018-10-07T02:40:49.266Z,7
2018-10-07T02:45:51.718Z,7
2018-10-07T02:50:54.153Z,7
2018-10-07T02:55:56.594Z,8
2018-10-07T03:00:59.124Z,7
2018-10-07T03:06:01.496Z,8
2018-10-07T03:11:03.923Z,8
2018-10-07T03:16:06.357Z,8
2018-10-07T03:21:08.791Z,8
2018-10-07T03:26:11.235Z,8
2018-10-07T03:31:13.725Z,8
2018-10-07T03:36:16.136Z,9
2018-10-07T03:41:18.573Z,8
2018-10-07T03:46:21.058Z,8
2018-10-07T03:51:23.465Z,8
2018-10-07T03:56:25.869Z,8
2018-10-07T04:01:28.405Z,8
2018-10-07T04:06:30.779Z,8
2018-10-07T04:11:33.258Z,8
2018-10-07T04:16:40.669Z,9
2018-10-07T04:21:38.180Z,8
2018-10-07T04:26:40.545Z,8
2018-10-07T04:36:45.456Z,9
2018-10-07T04:41:47.834Z,8
2018-10-07T04:46:50.314Z,8
2018-10-07T04:51:52.722Z,9
2018-10-07T04:56:55.153Z,9
2018-10-07T05:01:57.588Z,9
2018-10-07T05:07:00.062Z,8
2018-10-07T05:12:02.600Z,7
2018-10-07T05:17:04.906Z,8
2018-10-07T05:22:07.378Z,9
2018-10-07T05:27:09.800Z,8
2018-10-07T05:32:12.248Z,9
2018-10-07T05:37:14.722Z,9
2018-10-07T05:42:17.135Z,8
2018-10-07T05:47:19.564Z,8
2018-10-07T05:52:21.989Z,9
2018-10-07T05:57:24.456Z,10
2018-10-07T06:02:26.904Z,12
2018-10-07T06:07:29.331Z,12
2018-10-07T06:12:31.776Z,10
2018-10-07T06:17:34.293Z,9
2018-10-07T06:22:36.648Z,9
2018-10-07T06:27:39.100Z,9
2018-10-07T06:32:41.555Z,9
2018-10-07T06:37:43.956Z,9
2018-10-07T06:42:46.403Z,9
2018-10-07T06:47:48.843Z,10
2018-10-07T06:52:51.291Z,12
2018-10-07T06:57:53.785Z,11
2018-10-07T07:02:56.170Z,10
2018-10-07T07:07:58.613Z,10
2018-10-07T07:13:01.099Z,10
2018-10-07T07:18:03.571Z,11
2018-10-07T07:23:05.938Z,11
2018-10-07T07:28:08.369Z,11
2018-10-07T07:33:10.839Z,12
2018-10-07T07:38:13.236Z,13
2018-10-07T07:43:15.679Z,12
2018-10-07T07:48:18.137Z,13
2018-10-07T07:53:20.572Z,12
2018-10-07T07:58:23.006Z,14
2018-10-07T08:03:25.485Z,13
2018-10-07T08:08:27.890Z,14
2018-10-07T08:13:30.332Z,15
2018-10-07T08:18:32.818Z,16
2018-10-07T08:23:35.301Z,15
2018-10-07T08:28:37.667Z,16
2018-10-07T08:33:40.079Z,17
2018-10-07T08:38:42.550Z,17
2018-10-07T08:43:44.966Z,19
2018-10-07T08:48:47.412Z,18
2018-10-07T08:53:49.864Z,20
2018-10-07T08:58:52.288Z,21
2018-10-07T09:03:54.743Z,22
2018-10-07T09:08:57.288Z,24
2018-10-07T09:13:59.611Z,26
2018-10-07T09:19:02.047Z,28
2018-10-07T09:24:04.488Z,31
2018-10-07T09:29:06.923Z,33
2018-10-07T09:34:09.413Z,34
2018-10-07T09:39:11.886Z,35
2018-10-07T09:44:14.258Z,36
2018-10-07T09:49:16.692Z,37
2018-10-07T09:54:19.132Z,39
2018-10-07T09:59:21.571Z,41
2018-10-07T10:04:24.252Z,38
2018-10-07T10:09:26.454Z,38
2018-10-07T10:14:28.899Z,41
2018-10-07T10:19:31.378Z,44
2018-10-07T10:24:33.783Z,41
2018-10-07T10:29:36.226Z,41
2018-10-07T10:34:38.670Z,43
2018-10-07T10:39:41.186Z,44
2018-10-07T10:44:43.543Z,46
2018-10-07T10:49:45.977Z,45
2018-10-07T10:54:48.412Z,44
2018-10-07T10:59:50.861Z,39
2018-10-07T11:04:53.837Z,38
2018-10-07T11:09:55.793Z,38
2018-10-07T11:14:58.176Z,41
2018-10-07T11:20:00.613Z,53
2018-10-07T11:25:03.073Z,43
2018-10-07T11:30:05.571Z,46
2018-10-07T11:35:07.955Z,47
2018-10-07T11:40:10.428Z,44
2018-10-07T11:45:12.815Z,41
2018-10-07T11:50:15.285Z,41
2018-10-07T11:55:17.695Z,40
2018-10-07T12:00:20.154Z,43
2018-10-07T12:05:22.602Z,40
2018-10-07T12:10:25.033Z,39
2018-10-07T12:15:27.466Z,39
2018-10-07T12:20:29.902Z,41
2018-10-07T12:25:32.347Z,40
2018-10-07T12:30:34.792Z,39
2018-10-07T12:35:37.376Z,38
2018-10-07T12:40:39.673Z,36
2018-10-07T12:45:42.099Z,36
2018-10-07T12:55:46.998Z,35
2018-10-07T13:00:49.419Z,34
2018-10-07T13:05:51.869Z,37
2018-10-07T13:10:54.313Z,36
2018-10-07T13:15:56.904Z,38
2018-10-07T13:20:59.188Z,39
2018-10-07T13:26:01.726Z,38
2018-10-07T13:31:04.069Z,34
2018-10-07T13:36:06.515Z,31
2018-10-07T13:41:08.950Z,27
2018-10-07T13:46:11.398Z,29
2018-10-07T13:51:13.826Z,27
2018-10-07T13:56:16.286Z,27
2018-10-07T14:01:18.707Z,27
2018-10-07T14:06:21.715Z,25
2018-10-07T14:11:23.583Z,26
2018-10-07T14:16:26.031Z,27
2018-10-07T14:21:28.475Z,26
2018-10-07T14:26:30.912Z,27
2018-10-07T14:31:33.352Z,25
2018-10-07T14:36:35.793Z,23
2018-10-07T14:41:38.275Z,24
2018-10-07T14:46:40.673Z,22
2018-10-07T14:51:43.127Z,19
2018-10-07T14:56:45.545Z,20
2018-10-07T15:01:47.985Z,16
2018-10-07T15:06:50.462Z,14
2018-10-07T15:11:52.871Z,13
2018-10-07T15:16:55.310Z,13
2018-10-07T15:21:57.776Z,11
2018-10-07T15:27:00.201Z,13
2018-10-07T15:32:02.625Z,11
2018-10-07T15:37:05.082Z,11
2018-10-07T15:47:09.955Z,9
2018-10-07T15:52:12.386Z,9
2018-10-07T15:57:14.833Z,8
2018-10-07T16:02:17.273Z,8
2018-10-07T16:07:19.755Z,8
2018-10-07T16:12:22.247Z,7
2018-10-07T16:17:24.710Z,6
2018-10-07T16:22:27.039Z,6
2018-10-07T16:27:29.466Z,6
2018-10-07T16:32:31.910Z,6
2018-10-07T16:37:34.374Z,6
2018-10-07T16:42:36.815Z,5
2018-10-07T16:47:39.286Z,5
2018-10-07T16:52:41.703Z,5
2018-10-07T16:57:44.110Z,5
2018-10-07T17:02:46.561Z,6
2018-10-07T17:07:49.020Z,5
2018-10-07T17:12:51.529Z,7
2018-10-07T17:17:53.906Z,4
2018-10-07T17:22:56.327Z,5
2018-10-07T17:27:58.779Z,4
2018-10-07T17:33:01.247Z,4
2018-10-07T17:38:03.642Z,4
2018-10-07T17:43:06.073Z,4
2018-10-07T17:48:08.576Z,3
2018-10-07T17:53:10.955Z,3
2018-10-07T17:58:13.403Z,2
2018-10-07T18:03:15.904Z,2
2018-10-07T18:08:18.287Z,2
2018-10-07T18:13:20.736Z,3
2018-10-07T18:18:23.284Z,2
2018-10-07T18:23:25.674Z,2
2018-10-07T18:28:28.033Z,1
2018-10-07T18:33:30.480Z,2
2018-10-07T18:38:32.923Z,2
2018-10-07T18:43:35.377Z,2
2018-10-07T18:48:37.910Z,2
2018-10-07T18:53:40.246Z,3
2018-10-07T18:58:42.688Z,3
2018-10-07T19:03:45.123Z,2
2018-10-07T19:08:47.567Z,2
2018-10-07T19:13:50.003Z,2
2018-10-07T19:18:52.448Z,2
2018-10-07T19:23:54.922Z,2
2018-10-07T19:28:57.321Z,2
2018-10-07T19:33:59.787Z,2
2018-10-07T19:39:02.207Z,2
2018-10-07T19:44:04.642Z,2
2018-10-07T19:49:07.076Z,2
2018-10-07T19:54:09.568Z,1
2018-10-07T19:59:11.963Z,2
2018-10-07T20:04:14.411Z,2
2018-10-07T20:09:16.857Z,1
2018-10-07T20:14:19.307Z,2
2018-10-07T20:19:21.848Z,1
2018-10-07T20:24:24.155Z,1
2018-10-07T20:29:26.594Z,1
2018-10-07T20:34:29.051Z,1
2018-10-07T20:39:31.476Z,1
2018-10-07T20:44:33.920Z,2
2018-10-07T20:49:36.358Z,2
2018-10-07T20:54:38.823Z,2
2018-10-07T20:59:41.238Z,2
2018-10-07T21:04:43.673Z,1
2018-10-07T21:09:46.118Z,1
2018-10-07T21:14:48.558Z,1
2018-10-07T21:19:51.008Z,1
2018-10-07T21:24:53.449Z,1
2018-10-07T21:29:55.900Z,1
2018-10-07T21:34:58.386Z,1
2018-10-07T21:40:00.772Z,1
2018-10-07T21:45:03.210Z,1
2018-10-07T21:50:05.647Z,1
2018-10-07T21:55:08.152Z,1
2018-10-07T22:00:10.549Z,1
2018-10-07T22:05:12.969Z,1
2018-10-07T22:10:15.440Z,2
2018-10-07T22:15:17.850Z,1
2018-10-07T22:20:20.305Z,1
2018-10-07T22:25:22.731Z,2
2018-10-07T22:30:25.181Z,2
2018-10-07T22:35:27.614Z,2
2018-10-07T22:40:30.065Z,2
2018-10-07T22:45:32.491Z,2
2018-10-07T22:50:34.923Z,2
2018-10-07T22:55:37.369Z,2
2018-10-07T23:00:39.820Z,2
2018-10-07T23:05:42.261Z,2
2018-10-07T23:10:44.708Z,2
2018-10-07T23:15:47.271Z,2
2018-10-07T23:20:49.563Z,2
2018-10-07T23:25:52.031Z,2
2018-10-07T23:30:54.450Z,2
2018-10-07T23:35:56.897Z,2
2018-10-07T23:40:59.418Z,2
2018-10-07T23:46:01.805Z,2
2018-10-07T23:51:04.216Z,2
2018-10-07T23:56:06.656Z,2
